Sandlake, Wisconsin
Current Conditions -  °F | °C
As of 6:55 PM on Monday 26 Jan 2015 (Local Time) from KOEO Reporting Station
Overcast Overcast  
Wind Chill: 31°   Ceiling: 3700
Heat Index: 38°   Visibility: 10mi
Dew Point: 30°   Wind: 12mph
Humidity: 72%   Direction: 320°NW
Pressure: 29.88"   Gusts: 16mph
Location:  45.3599°N, 92.5447°W
Report Text: KOEO 270055Z AUTO 32010G14KT 10SM OVC037 04/M01 A2988 RMK AO2 T00361010
Loading
Personal Weather Stations






























Interactive Weather Map New forecast layout! Learn more

10-Day Weather Forecast

Advertisements
Track Severe Weather on mobile